createdAt,value
2022-11-13T00:02:13.834Z,7.83
2022-11-13T00:05:00.309Z,7.78
2022-11-13T00:07:46.818Z,7.75
2022-11-13T00:10:33.099Z,7.60
2022-11-13T00:13:20.870Z,7.59
2022-11-13T00:16:10.890Z,7.61
2022-11-13T00:18:57.091Z,7.54
2022-11-13T00:21:43.705Z,7.70
2022-11-13T00:24:30.143Z,7.70
2022-11-13T00:27:16.696Z,7.70
2022-11-13T00:30:05.207Z,7.56
2022-11-13T00:32:51.520Z,7.68
2022-11-13T00:35:37.937Z,7.65
2022-11-13T00:38:24.372Z,7.52
2022-11-13T00:41:10.851Z,7.72
2022-11-13T00:43:57.371Z,7.71
2022-11-13T00:46:45.198Z,7.69
2022-11-13T00:49:31.655Z,7.67
2022-11-13T00:52:18.256Z,7.62
2022-11-13T00:55:05.333Z,7.71
2022-11-13T00:57:51.894Z,7.66
2022-11-13T01:00:38.415Z,7.63
2022-11-13T01:03:26.163Z,7.66
2022-11-13T01:06:15.320Z,7.67
2022-11-13T01:09:01.805Z,7.55
2022-11-13T01:11:48.066Z,7.46
2022-11-13T01:14:34.590Z,7.49
2022-11-13T01:17:21.150Z,7.53
2022-11-13T01:20:10.069Z,7.57
2022-11-13T01:22:56.585Z,7.55
2022-11-13T01:25:43.150Z,7.46
2022-11-13T01:28:29.787Z,7.43
2022-11-13T01:31:17.791Z,7.43
2022-11-13T01:34:04.396Z,7.34
2022-11-13T01:36:52.559Z,7.35
2022-11-13T01:39:38.803Z,7.25
2022-11-13T01:42:25.390Z,6.98
2022-11-13T01:45:49.051Z,6.97
2022-11-13T01:48:39.822Z,6.85
2022-11-13T01:51:30.625Z,6.91
2022-11-13T01:54:22.832Z,6.91
2022-11-13T01:57:10.596Z,6.75
2022-11-13T02:00:01.423Z,6.63
2022-11-13T02:02:47.879Z,6.62
2022-11-13T02:05:34.672Z,6.72
2022-11-13T02:08:21.382Z,6.76
2022-11-13T02:11:09.098Z,6.68
2022-11-13T02:13:55.954Z,6.69
2022-11-13T02:16:44.023Z,6.76
2022-11-13T02:19:33.990Z,6.77
2022-11-13T02:22:27.233Z,6.72
2022-11-13T02:25:15.275Z,6.77
2022-11-13T02:28:01.826Z,6.77
2022-11-13T02:30:48.390Z,6.76
2022-11-13T02:33:35.046Z,6.76
2022-11-13T02:36:23.926Z,6.86
2022-11-13T02:39:12.998Z,6.92
2022-11-13T02:42:00.973Z,6.87
2022-11-13T02:44:47.716Z,6.94
2022-11-13T02:47:34.963Z,6.91
2022-11-13T02:50:21.554Z,6.81
2022-11-13T02:53:08.450Z,6.82
2022-11-13T02:55:54.949Z,6.86
2022-11-13T02:58:42.854Z,6.87
2022-11-13T03:01:29.117Z,7.03
2022-11-13T03:04:15.446Z,7.02
2022-11-13T03:07:02.031Z,7.01
2022-11-13T03:09:48.548Z,7.02
2022-11-13T03:12:35.349Z,7.18
2022-11-13T03:15:23.559Z,7.21
2022-11-13T03:18:11.192Z,7.19
2022-11-13T03:20:57.718Z,7.26
2022-11-13T03:23:45.544Z,7.24
2022-11-13T03:26:31.819Z,7.26
2022-11-13T03:29:18.208Z,7.29
2022-11-13T03:32:06.696Z,7.31
2022-11-13T03:34:53.225Z,7.40
2022-11-13T03:37:39.817Z,7.40
2022-11-13T03:40:26.367Z,7.41
2022-11-13T03:43:12.875Z,7.43
2022-11-13T03:45:59.144Z,7.40
2022-11-13T03:48:46.617Z,7.37
2022-11-13T03:51:33.334Z,7.32
2022-11-13T03:54:20.083Z,7.39
2022-11-13T03:57:06.664Z,7.40
2022-11-13T03:59:53.007Z,7.27
2022-11-13T04:02:39.568Z,7.34
2022-11-13T04:05:27.608Z,7.26
2022-11-13T04:08:13.831Z,7.39
2022-11-13T04:11:07.542Z,7.41
2022-11-13T04:13:54.080Z,7.33
2022-11-13T04:16:40.868Z,7.34
2022-11-13T04:19:27.091Z,7.31
2022-11-13T04:22:15.140Z,7.34
2022-11-13T04:25:01.426Z,7.22
2022-11-13T04:27:49.638Z,7.34
2022-11-13T04:30:35.852Z,7.32
2022-11-13T04:33:22.584Z,7.26
2022-11-13T04:36:09.249Z,7.25
2022-11-13T04:38:57.095Z,7.32
2022-11-13T04:42:01.007Z,7.29
2022-11-13T04:44:47.419Z,7.30
2022-11-13T04:47:33.593Z,7.31
2022-11-13T04:50:20.638Z,7.32
2022-11-13T04:53:06.979Z,7.34
2022-11-13T04:55:54.869Z,7.33
2022-11-13T04:58:41.198Z,7.43
2022-11-13T05:01:27.731Z,7.45
2022-11-13T05:04:15.131Z,7.39
2022-11-13T05:07:01.467Z,7.35
2022-11-13T05:09:47.974Z,7.39
2022-11-13T05:12:35.795Z,7.46
2022-11-13T05:15:22.307Z,7.50
2022-11-13T05:18:08.906Z,7.51
2022-11-13T05:20:55.519Z,7.39
2022-11-13T05:23:42.032Z,7.18
2022-11-13T05:26:28.630Z,7.06
2022-11-13T05:29:16.313Z,7.03
2022-11-13T05:32:02.927Z,7.03
2022-11-13T05:34:49.560Z,7.03
2022-11-13T05:37:35.902Z,7.00
2022-11-13T05:40:22.575Z,7.02
2022-11-13T05:43:08.946Z,7.00
2022-11-13T05:46:02.378Z,6.96
2022-11-13T05:48:52.968Z,6.99
2022-11-13T05:51:39.326Z,7.06
2022-11-13T05:54:25.872Z,7.19
2022-11-13T05:57:12.290Z,7.29
2022-11-13T05:59:58.660Z,7.38
2022-11-13T06:02:46.325Z,7.38
2022-11-13T06:05:35.843Z,7.28
2022-11-13T06:08:21.980Z,7.23
2022-11-13T06:11:10.214Z,7.23
2022-11-13T06:13:58.316Z,7.17
2022-11-13T06:16:44.823Z,7.11
2022-11-13T06:19:32.695Z,7.12
2022-11-13T06:22:19.101Z,7.18
2022-11-13T06:25:06.463Z,7.27
2022-11-13T06:27:54.072Z,7.38
2022-11-13T06:30:40.413Z,7.45
2022-11-13T06:33:29.396Z,7.48
2022-11-13T06:36:21.361Z,7.50
2022-11-13T06:39:09.112Z,7.61
2022-11-13T06:41:55.611Z,7.58
2022-11-13T06:44:42.276Z,7.62
2022-11-13T06:47:29.508Z,7.60
2022-11-13T06:50:15.907Z,7.50
2022-11-13T06:53:03.773Z,7.48
2022-11-13T06:55:51.489Z,7.50
2022-11-13T06:58:37.911Z,7.51
2022-11-13T07:01:26.484Z,7.45
2022-11-13T07:04:16.553Z,7.54
2022-11-13T07:07:03.065Z,7.55
2022-11-13T07:09:50.885Z,7.60
2022-11-13T07:12:37.459Z,7.59
2022-11-13T07:15:23.939Z,7.68
2022-11-13T07:18:10.393Z,7.71
2022-11-13T07:20:56.931Z,7.74
2022-11-13T07:23:44.499Z,7.62
2022-11-13T07:26:34.100Z,7.70
2022-11-13T07:29:21.111Z,7.73
2022-11-13T07:32:07.545Z,7.81
2022-11-13T07:34:54.261Z,7.77
2022-11-13T07:37:41.092Z,7.87
2022-11-13T07:40:27.391Z,7.91
2022-11-13T07:43:15.435Z,7.98
2022-11-13T07:46:02.536Z,8.00
2022-11-13T07:48:49.172Z,8.06
2022-11-13T07:51:35.624Z,8.10
2022-11-13T07:54:22.205Z,8.19
2022-11-13T07:57:09.060Z,8.25
2022-11-13T07:59:56.818Z,8.15
2022-11-13T08:02:43.294Z,8.12
2022-11-13T08:05:31.528Z,8.27
2022-11-13T08:08:18.122Z,8.29
2022-11-13T08:11:06.249Z,8.27
2022-11-13T08:13:53.541Z,8.25
2022-11-13T08:16:41.246Z,8.11
2022-11-13T08:19:27.451Z,8.13
2022-11-13T08:22:13.991Z,8.19
2022-11-13T08:25:00.633Z,8.23
2022-11-13T08:27:46.863Z,8.32
2022-11-13T08:30:33.234Z,8.37
2022-11-13T08:33:21.180Z,8.44
2022-11-13T08:36:08.363Z,8.53
2022-11-13T08:38:54.838Z,8.66
2022-11-13T08:41:41.047Z,8.73
2022-11-13T08:44:27.600Z,8.79
2022-11-13T08:47:13.904Z,8.83
2022-11-13T08:50:01.760Z,8.89
2022-11-13T08:52:48.309Z,8.94
2022-11-13T08:55:35.508Z,8.95
2022-11-13T08:58:21.767Z,8.97
2022-11-13T09:01:08.386Z,9.00
2022-11-13T09:03:54.912Z,9.08
2022-11-13T09:06:42.607Z,9.15
2022-11-13T09:09:29.096Z,9.20
2022-11-13T09:12:15.694Z,9.24
2022-11-13T09:15:02.236Z,9.29
2022-11-13T09:17:48.664Z,9.35
2022-11-13T09:20:35.250Z,9.37
2022-11-13T09:23:23.112Z,9.43
2022-11-13T09:26:09.645Z,9.46
2022-11-13T09:28:56.252Z,9.49
2022-11-13T09:31:42.641Z,9.54
2022-11-13T09:34:29.816Z,9.56
2022-11-13T09:37:16.423Z,9.58
2022-11-13T09:40:04.622Z,9.61
2022-11-13T09:42:51.332Z,9.63
2022-11-13T09:45:41.562Z,9.68
2022-11-13T09:48:33.152Z,9.70
2022-11-13T09:51:22.168Z,9.77
2022-11-13T09:54:13.431Z,9.82
2022-11-13T09:57:11.452Z,9.88
2022-11-13T10:00:01.841Z,9.92
2022-11-13T10:02:59.480Z,9.98
2022-11-13T10:05:53.512Z,10.06
2022-11-13T10:08:51.929Z,10.17
2022-11-13T10:11:42.288Z,10.22
2022-11-13T10:14:35.791Z,10.26
2022-11-13T10:17:26.343Z,10.32
2022-11-13T10:20:16.969Z,10.34
2022-11-13T10:23:09.889Z,10.38
2022-11-13T10:26:00.969Z,10.41
2022-11-13T10:28:51.508Z,10.46
2022-11-13T10:31:48.676Z,10.49
2022-11-13T10:34:35.022Z,10.51
2022-11-13T10:37:31.252Z,10.53
2022-11-13T10:40:26.090Z,10.53
2022-11-13T10:43:17.747Z,10.46
2022-11-13T10:46:06.787Z,10.53
2022-11-13T10:48:54.378Z,10.53
2022-11-13T10:51:41.014Z,10.54
2022-11-13T10:54:28.900Z,10.59
2022-11-13T10:57:25.745Z,10.62
2022-11-13T11:00:24.195Z,10.50
2022-11-13T11:03:15.915Z,10.70
2022-11-13T11:06:06.273Z,10.69
2022-11-13T11:08:52.385Z,10.79
2022-11-13T11:11:56.580Z,10.83
2022-11-13T11:14:51.356Z,10.85
2022-11-13T11:17:43.699Z,10.88
2022-11-13T11:20:42.120Z,10.91
2022-11-13T11:23:38.338Z,10.97
2022-11-13T11:26:31.763Z,10.96
2022-11-13T11:29:22.806Z,11.05
2022-11-13T11:32:17.816Z,11.07
2022-11-13T11:35:13.958Z,11.04
2022-11-13T11:38:06.435Z,11.05
2022-11-13T11:41:00.386Z,11.07
2022-11-13T11:43:49.986Z,11.09
2022-11-13T11:46:37.354Z,11.14
2022-11-13T11:49:27.630Z,11.19
2022-11-13T11:52:30.700Z,11.23
2022-11-13T11:55:32.284Z,11.23
2022-11-13T11:58:55.885Z,11.25
2022-11-13T12:01:59.261Z,11.31
2022-11-13T12:04:59.720Z,11.38
2022-11-13T12:07:54.239Z,11.44
2022-11-13T12:10:49.371Z,11.50
2022-11-13T12:13:45.319Z,11.58
2022-11-13T12:16:42.538Z,11.64
2022-11-13T12:19:38.738Z,11.70
2022-11-13T12:22:32.021Z,11.74
2022-11-13T12:25:28.764Z,11.86
2022-11-13T12:28:21.357Z,11.97
2022-11-13T12:31:18.744Z,12.06
2022-11-13T12:34:14.210Z,12.16
2022-11-13T12:37:02.850Z,12.22
2022-11-13T12:39:57.138Z,12.25
2022-11-13T12:42:49.270Z,12.26
2022-11-13T12:45:50.708Z,12.32
2022-11-13T12:48:40.682Z,12.41
2022-11-13T12:51:38.307Z,12.53
2022-11-13T12:54:29.711Z,12.61
2022-11-13T12:57:25.850Z,12.68
2022-11-13T13:00:26.775Z,12.74
2022-11-13T13:03:37.123Z,12.82
2022-11-13T13:06:46.080Z,12.90
2022-11-13T13:09:50.678Z,12.94
2022-11-13T13:12:49.412Z,12.97
2022-11-13T13:15:38.414Z,13.09
2022-11-13T13:18:30.922Z,13.16
2022-11-13T13:21:19.398Z,13.22
2022-11-13T13:24:27.796Z,13.27
2022-11-13T13:27:23.355Z,13.32
2022-11-13T13:30:20.136Z,13.37
2022-11-13T13:33:20.510Z,13.40
2022-11-13T13:36:18.466Z,13.42
2022-11-13T13:39:17.255Z,13.45
2022-11-13T13:42:17.771Z,13.51
2022-11-13T13:45:24.948Z,13.51
2022-11-13T13:48:14.200Z,13.49
2022-11-13T13:51:01.581Z,13.52
2022-11-13T13:53:50.138Z,13.54
2022-11-13T13:56:43.304Z,13.52
2022-11-13T13:59:33.788Z,13.50
2022-11-13T14:02:23.138Z,13.44
2022-11-13T14:05:24.691Z,13.47
2022-11-13T14:08:18.015Z,13.45
2022-11-13T14:11:16.769Z,13.42
2022-11-13T14:14:11.356Z,13.41
2022-11-13T14:17:00.452Z,13.43
2022-11-13T14:19:50.681Z,13.43
2022-11-13T14:22:37.538Z,13.44
2022-11-13T14:25:27.948Z,13.40
2022-11-13T14:28:16.942Z,13.36
2022-11-13T14:31:07.939Z,13.25
2022-11-13T14:33:54.837Z,13.32
2022-11-13T14:36:41.313Z,13.26
2022-11-13T14:39:31.384Z,13.22
2022-11-13T14:42:20.313Z,13.13
2022-11-13T14:45:15.007Z,13.02
2022-11-13T14:48:05.306Z,12.98
2022-11-13T14:50:53.327Z,12.89
2022-11-13T14:53:42.663Z,12.75
2022-11-13T14:56:36.992Z,12.63
2022-11-13T14:59:27.857Z,12.49
2022-11-13T15:02:14.627Z,12.36
2022-11-13T15:05:02.310Z,12.20
2022-11-13T15:07:48.961Z,12.07
2022-11-13T15:10:35.417Z,11.94
2022-11-13T15:13:21.840Z,11.80
2022-11-13T15:16:12.067Z,11.68
2022-11-13T15:19:02.781Z,11.57
2022-11-13T15:22:20.270Z,11.50
2022-11-13T15:24:56.700Z,11.34
2022-11-13T15:27:43.612Z,11.31
2022-11-13T15:30:29.929Z,11.22
2022-11-13T15:33:17.722Z,11.14
2022-11-13T15:36:03.833Z,11.07
2022-11-13T15:38:51.489Z,10.97
2022-11-13T15:41:38.108Z,10.90
2022-11-13T15:44:24.634Z,10.83
2022-11-13T15:47:26.452Z,10.76
2022-11-13T15:50:15.347Z,10.68
2022-11-13T15:53:05.516Z,10.64
2022-11-13T15:55:53.548Z,10.58
2022-11-13T15:58:40.107Z,10.52
2022-11-13T16:01:26.905Z,10.46
2022-11-13T16:04:14.851Z,10.37
2022-11-13T16:07:01.297Z,10.39
2022-11-13T16:09:48.849Z,10.32
2022-11-13T16:12:36.505Z,10.30
2022-11-13T16:15:22.945Z,10.15
2022-11-13T16:18:19.729Z,10.18
2022-11-13T16:21:06.838Z,10.13
2022-11-13T16:23:53.350Z,10.07
2022-11-13T16:26:41.972Z,10.07
2022-11-13T16:29:30.897Z,9.99
2022-11-13T16:32:18.350Z,9.98
2022-11-13T16:35:04.905Z,9.92
2022-11-13T16:37:51.284Z,9.87
2022-11-13T16:40:37.711Z,9.81
2022-11-13T16:43:24.245Z,9.72
2022-11-13T16:46:21.404Z,9.76
2022-11-13T16:49:12.763Z,9.76
2022-11-13T16:51:59.175Z,9.74
2022-11-13T16:54:46.194Z,9.66
2022-11-13T16:57:32.619Z,9.59
2022-11-13T17:00:20.666Z,9.56
2022-11-13T17:03:08.253Z,9.55
2022-11-13T17:05:54.792Z,9.54
2022-11-13T17:08:41.332Z,9.53
2022-11-13T17:11:29.872Z,9.51
2022-11-13T17:14:16.453Z,9.49
2022-11-13T17:17:02.888Z,9.49
2022-11-13T17:19:50.703Z,9.43
2022-11-13T17:22:37.348Z,9.40
2022-11-13T17:25:26.522Z,9.37
2022-11-13T17:28:12.870Z,9.24
2022-11-13T17:31:02.870Z,9.29
2022-11-13T17:33:49.595Z,9.20
2022-11-13T17:36:37.359Z,9.14
2022-11-13T17:39:24.004Z,9.10
2022-11-13T17:42:10.606Z,9.11
2022-11-13T17:44:57.096Z,9.09
2022-11-13T17:47:43.809Z,9.02
2022-11-13T17:50:30.439Z,8.96
2022-11-13T17:53:18.115Z,8.96
2022-11-13T17:56:08.129Z,8.96
2022-11-13T17:58:54.579Z,8.95
2022-11-13T18:01:41.151Z,8.92
2022-11-13T18:04:27.515Z,8.86
2022-11-13T18:07:14.048Z,8.72
2022-11-13T18:10:01.976Z,8.57
2022-11-13T18:12:48.417Z,8.58
2022-11-13T18:15:36.415Z,8.59
2022-11-13T18:18:23.025Z,8.62
2022-11-13T18:21:22.368Z,8.48
2022-11-13T18:24:14.059Z,8.40
2022-11-13T18:27:02.058Z,8.53
2022-11-13T18:29:48.669Z,8.52
2022-11-13T18:32:35.050Z,8.54
2022-11-13T18:35:21.715Z,8.48
2022-11-13T18:38:08.286Z,8.53
2022-11-13T18:41:01.299Z,8.47
2022-11-13T18:43:50.791Z,8.41
2022-11-13T18:46:37.146Z,8.37
2022-11-13T18:49:23.760Z,8.32
2022-11-13T18:52:10.507Z,8.29
2022-11-13T18:54:56.623Z,8.18
2022-11-13T18:57:44.684Z,8.22
2022-11-13T19:00:32.597Z,8.24
2022-11-13T19:03:19.027Z,8.25
2022-11-13T19:06:07.043Z,8.34
2022-11-13T19:08:56.711Z,8.40
2022-11-13T19:11:44.198Z,8.42
2022-11-13T19:14:30.679Z,8.37
2022-11-13T19:17:18.695Z,8.39
2022-11-13T19:20:06.031Z,8.33
2022-11-13T19:22:52.277Z,8.24
2022-11-13T19:25:38.721Z,8.24
2022-11-13T19:28:25.528Z,8.28
2022-11-13T19:31:14.294Z,8.26
2022-11-13T19:34:04.720Z,8.23
2022-11-13T19:36:51.440Z,8.08
2022-11-13T19:39:38.140Z,7.93
2022-11-13T19:42:24.724Z,7.91
2022-11-13T19:45:12.021Z,7.91
2022-11-13T19:47:58.519Z,7.95
2022-11-13T19:50:47.355Z,8.04
2022-11-13T19:53:33.881Z,7.95
2022-11-13T19:56:21.993Z,7.79
2022-11-13T19:59:11.955Z,7.67
2022-11-13T20:01:58.154Z,7.80
2022-11-13T20:04:44.448Z,7.80
2022-11-13T20:07:32.471Z,7.85
2022-11-13T20:10:19.127Z,7.80
2022-11-13T20:13:05.603Z,7.76
2022-11-13T20:15:54.384Z,7.83
2022-11-13T20:18:42.756Z,7.83
2022-11-13T20:21:31.357Z,7.83
2022-11-13T20:24:19.243Z,7.66
2022-11-13T20:27:05.715Z,7.58
2022-11-13T20:29:52.325Z,7.55
2022-11-13T20:32:39.156Z,7.36
2022-11-13T20:35:25.276Z,7.16
2022-11-13T20:38:11.955Z,7.01
2022-11-13T20:40:59.781Z,6.99
2022-11-13T20:43:46.155Z,7.05
2022-11-13T20:46:32.650Z,7.00
2022-11-13T20:49:19.164Z,6.87
2022-11-13T20:52:07.038Z,6.98
2022-11-13T20:54:53.631Z,6.98
2022-11-13T20:57:41.369Z,6.98
2022-11-13T21:00:27.761Z,7.04
2022-11-13T21:03:14.590Z,7.05
2022-11-13T21:06:01.192Z,7.06
2022-11-13T21:08:47.970Z,7.04
2022-11-13T21:11:34.383Z,7.02
2022-11-13T21:14:22.226Z,6.85
2022-11-13T21:17:08.573Z,6.84
2022-11-13T21:19:57.584Z,6.87
2022-11-13T21:22:44.183Z,6.93
2022-11-13T21:25:30.928Z,6.98
2022-11-13T21:28:22.427Z,7.02
2022-11-13T21:31:15.523Z,6.90
2022-11-13T21:34:01.828Z,6.87
2022-11-13T21:36:48.414Z,7.01
2022-11-13T21:39:34.861Z,7.02
2022-11-13T21:42:21.394Z,7.10
2022-11-13T21:45:08.838Z,7.06
2022-11-13T21:47:56.426Z,7.17
2022-11-13T21:50:42.912Z,7.17
2022-11-13T21:53:29.399Z,7.15
2022-11-13T21:56:16.933Z,6.93
2022-11-13T21:59:03.515Z,6.97
2022-11-13T22:01:50.233Z,6.99
2022-11-13T22:04:38.167Z,6.99
2022-11-13T22:07:24.647Z,6.97
2022-11-13T22:10:11.210Z,6.95
2022-11-13T22:12:57.741Z,6.95
2022-11-13T22:15:44.163Z,6.99
2022-11-13T22:18:31.315Z,6.99
2022-11-13T22:21:19.336Z,6.99
2022-11-13T22:24:06.219Z,6.98
2022-11-13T22:26:52.610Z,7.03
2022-11-13T22:29:39.263Z,6.91
2022-11-13T22:32:25.367Z,6.86
2022-11-13T22:35:11.858Z,6.84
2022-11-13T22:37:59.796Z,6.84
2022-11-13T22:40:46.262Z,6.78
2022-11-13T22:43:34.182Z,6.80
2022-11-13T22:46:22.067Z,6.79
2022-11-13T22:49:08.439Z,6.74
2022-11-13T22:51:54.656Z,6.56
2022-11-13T22:54:42.453Z,6.58
2022-11-13T22:57:28.915Z,6.53
2022-11-13T23:00:15.862Z,6.54
2022-11-13T23:03:02.018Z,6.53
2022-11-13T23:05:48.554Z,6.51
2022-11-13T23:08:38.637Z,6.52
2022-11-13T23:11:28.213Z,6.56
2022-11-13T23:14:15.684Z,6.58
2022-11-13T23:17:02.296Z,6.57
2022-11-13T23:19:48.667Z,6.53
2022-11-13T23:22:35.113Z,6.45
2022-11-13T23:25:21.626Z,6.44
2022-11-13T23:28:09.435Z,6.46
2022-11-13T23:30:56.330Z,6.38
2022-11-13T23:33:42.997Z,6.63
2022-11-13T23:36:30.546Z,6.68
2022-11-13T23:39:16.800Z,6.73
2022-11-13T23:42:03.116Z,6.68
2022-11-13T23:44:50.862Z,6.65
2022-11-13T23:47:37.425Z,6.57
2022-11-13T23:50:24.239Z,6.65
2022-11-13T23:53:10.994Z,6.63
2022-11-13T23:55:57.442Z,6.52
2022-11-13T23:58:44.119Z,6.39
